sensor_id;sensor_type;location;lat;lon;timestamp;P1;durP1;ratioP1;P2;durP2;ratioP2
25553;SDS011;13446;50.926;5.332;2022-07-25T00:01:01;12.50;;;5.50;;
25553;SDS011;13446;50.926;5.332;2022-07-25T00:03:27;10.45;;;5.55;;
25553;SDS011;13446;50.926;5.332;2022-07-25T00:05:53;12.88;;;5.53;;
25553;SDS011;13446;50.926;5.332;2022-07-25T00:08:19;9.43;;;5.78;;
25553;SDS011;13446;50.926;5.332;2022-07-25T00:10:44;7.32;;;5.63;;
25553;SDS011;13446;50.926;5.332;2022-07-25T00:13:10;9.18;;;6.18;;
25553;SDS011;13446;50.926;5.332;2022-07-25T00:15:36;9.80;;;5.55;;
25553;SDS011;13446;50.926;5.332;2022-07-25T00:18:01;11.88;;;5.85;;
25553;SDS011;13446;50.926;5.332;2022-07-25T00:20:27;9.02;;;5.68;;
25553;SDS011;13446;50.926;5.332;2022-07-25T00:22:53;6.90;;;5.88;;
25553;SDS011;13446;50.926;5.332;2022-07-25T00:25:19;8.02;;;5.70;;
25553;SDS011;13446;50.926;5.332;2022-07-25T00:27:44;9.18;;;5.15;;
25553;SDS011;13446;50.926;5.332;2022-07-25T00:30:10;7.05;;;5.70;;
25553;SDS011;13446;50.926;5.332;2022-07-25T00:32:36;8.55;;;6.03;;
25553;SDS011;13446;50.926;5.332;2022-07-25T00:35:02;9.02;;;5.40;;
25553;SDS011;13446;50.926;5.332;2022-07-25T00:37:28;9.45;;;5.72;;
25553;SDS011;13446;50.926;5.332;2022-07-25T00:39:54;6.85;;;5.60;;
25553;SDS011;13446;50.926;5.332;2022-07-25T00:42:19;10.88;;;5.55;;
25553;SDS011;13446;50.926;5.332;2022-07-25T00:44:48;10.35;;;5.60;;
25553;SDS011;13446;50.926;5.332;2022-07-25T00:47:16;13.38;;;5.72;;
25553;SDS011;13446;50.926;5.332;2022-07-25T00:49:41;9.52;;;5.80;;
25553;SDS011;13446;50.926;5.332;2022-07-25T00:52:07;10.98;;;6.82;;
25553;SDS011;13446;50.926;5.332;2022-07-25T00:54:33;13.40;;;5.80;;
25553;SDS011;13446;50.926;5.332;2022-07-25T00:56:59;8.00;;;5.35;;
25553;SDS011;13446;50.926;5.332;2022-07-25T00:59:24;7.82;;;5.60;;
25553;SDS011;13446;50.926;5.332;2022-07-25T01:01:52;9.57;;;5.82;;
25553;SDS011;13446;50.926;5.332;2022-07-25T01:04:18;15.13;;;5.40;;
25553;SDS011;13446;50.926;5.332;2022-07-25T01:06:44;8.10;;;5.78;;
25553;SDS011;13446;50.926;5.332;2022-07-25T01:09:10;9.25;;;5.50;;
25553;SDS011;13446;50.926;5.332;2022-07-25T01:11:36;9.20;;;6.22;;
25553;SDS011;13446;50.926;5.332;2022-07-25T01:14:02;9.50;;;5.50;;
25553;SDS011;13446;50.926;5.332;2022-07-25T01:16:27;14.25;;;6.10;;
25553;SDS011;13446;50.926;5.332;2022-07-25T01:18:55;16.10;;;6.90;;
25553;SDS011;13446;50.926;5.332;2022-07-25T01:21:21;8.77;;;5.78;;
25553;SDS011;13446;50.926;5.332;2022-07-25T01:23:48;10.40;;;5.70;;
25553;SDS011;13446;50.926;5.332;2022-07-25T01:26:13;13.23;;;6.03;;
25553;SDS011;13446;50.926;5.332;2022-07-25T01:28:39;10.95;;;5.93;;
25553;SDS011;13446;50.926;5.332;2022-07-25T01:31:05;15.18;;;5.45;;
25553;SDS011;13446;50.926;5.332;2022-07-25T01:33:30;9.55;;;6.03;;
25553;SDS011;13446;50.926;5.332;2022-07-25T01:35:56;14.25;;;6.03;;
25553;SDS011;13446;50.926;5.332;2022-07-25T01:38:21;21.65;;;6.28;;
25553;SDS011;13446;50.926;5.332;2022-07-25T01:40:49;8.52;;;6.00;;
25553;SDS011;13446;50.926;5.332;2022-07-25T01:43:14;13.02;;;5.68;;
25553;SDS011;13446;50.926;5.332;2022-07-25T01:45:40;9.73;;;5.80;;
25553;SDS011;13446;50.926;5.332;2022-07-25T01:48:07;13.02;;;6.28;;
25553;SDS011;13446;50.926;5.332;2022-07-25T01:50:34;9.45;;;5.55;;
25553;SDS011;13446;50.926;5.332;2022-07-25T01:52:59;9.48;;;5.65;;
25553;SDS011;13446;50.926;5.332;2022-07-25T01:55:26;10.18;;;5.82;;
25553;SDS011;13446;50.926;5.332;2022-07-25T01:57:51;9.38;;;5.97;;
25553;SDS011;13446;50.926;5.332;2022-07-25T02:00:17;6.10;;;5.18;;
25553;SDS011;13446;50.926;5.332;2022-07-25T02:02:43;10.05;;;5.75;;
25553;SDS011;13446;50.926;5.332;2022-07-25T02:05:09;13.38;;;5.72;;
25553;SDS011;13446;50.926;5.332;2022-07-25T02:07:36;10.07;;;5.78;;
25553;SDS011;13446;50.926;5.332;2022-07-25T02:10:04;7.13;;;5.78;;
25553;SDS011;13446;50.926;5.332;2022-07-25T02:12:31;7.90;;;5.93;;
25553;SDS011;13446;50.926;5.332;2022-07-25T02:14:57;11.77;;;5.68;;
25553;SDS011;13446;50.926;5.332;2022-07-25T02:17:23;9.95;;;5.68;;
25553;SDS011;13446;50.926;5.332;2022-07-25T02:19:48;9.10;;;5.60;;
25553;SDS011;13446;50.926;5.332;2022-07-25T02:22:14;9.25;;;5.60;;
25553;SDS011;13446;50.926;5.332;2022-07-25T02:24:40;8.95;;;5.93;;
25553;SDS011;13446;50.926;5.332;2022-07-25T02:27:05;10.48;;;5.78;;
25553;SDS011;13446;50.926;5.332;2022-07-25T02:29:32;11.50;;;6.38;;
25553;SDS011;13446;50.926;5.332;2022-07-25T02:31:58;8.18;;;6.40;;
25553;SDS011;13446;50.926;5.332;2022-07-25T02:34:24;8.75;;;6.03;;
25553;SDS011;13446;50.926;5.332;2022-07-25T02:36:49;8.65;;;5.57;;
25553;SDS011;13446;50.926;5.332;2022-07-25T02:39:15;8.82;;;6.03;;
25553;SDS011;13446;50.926;5.332;2022-07-25T02:41:42;9.80;;;6.18;;
25553;SDS011;13446;50.926;5.332;2022-07-25T02:44:07;7.05;;;5.65;;
25553;SDS011;13446;50.926;5.332;2022-07-25T02:46:33;9.60;;;5.88;;
25553;SDS011;13446;50.926;5.332;2022-07-25T02:48:59;10.88;;;5.88;;
25553;SDS011;13446;50.926;5.332;2022-07-25T02:51:24;11.70;;;6.10;;
25553;SDS011;13446;50.926;5.332;2022-07-25T02:53:50;9.85;;;6.05;;
25553;SDS011;13446;50.926;5.332;2022-07-25T02:56:16;9.55;;;6.32;;
25553;SDS011;13446;50.926;5.332;2022-07-25T02:58:41;11.93;;;6.10;;
25553;SDS011;13446;50.926;5.332;2022-07-25T03:01:07;13.77;;;6.10;;
25553;SDS011;13446;50.926;5.332;2022-07-25T03:03:33;7.63;;;6.05;;
25553;SDS011;13446;50.926;5.332;2022-07-25T03:05:59;6.75;;;5.80;;
25553;SDS011;13446;50.926;5.332;2022-07-25T03:08:24;8.38;;;6.00;;
25553;SDS011;13446;50.926;5.332;2022-07-25T03:10:51;6.60;;;5.90;;
25553;SDS011;13446;50.926;5.332;2022-07-25T03:13:16;9.43;;;6.57;;
25553;SDS011;13446;50.926;5.332;2022-07-25T03:15:42;7.22;;;5.75;;
25553;SDS011;13446;50.926;5.332;2022-07-25T03:18:08;6.72;;;5.95;;
25553;SDS011;13446;50.926;5.332;2022-07-25T03:20:33;9.00;;;6.07;;
25553;SDS011;13446;50.926;5.332;2022-07-25T03:22:59;11.52;;;5.93;;
25553;SDS011;13446;50.926;5.332;2022-07-25T03:25:26;10.52;;;6.55;;
25553;SDS011;13446;50.926;5.332;2022-07-25T03:27:51;7.78;;;6.05;;
25553;SDS011;13446;50.926;5.332;2022-07-25T03:30:17;11.13;;;6.15;;
25553;SDS011;13446;50.926;5.332;2022-07-25T03:32:43;10.80;;;5.85;;
25553;SDS011;13446;50.926;5.332;2022-07-25T03:35:08;10.15;;;6.78;;
25553;SDS011;13446;50.926;5.332;2022-07-25T03:37:34;7.88;;;6.10;;
25553;SDS011;13446;50.926;5.332;2022-07-25T03:40:00;9.95;;;6.35;;
25553;SDS011;13446;50.926;5.332;2022-07-25T03:42:25;14.65;;;6.68;;
25553;SDS011;13446;50.926;5.332;2022-07-25T03:44:51;9.85;;;6.57;;
25553;SDS011;13446;50.926;5.332;2022-07-25T03:47:17;10.52;;;6.55;;
25553;SDS011;13446;50.926;5.332;2022-07-25T03:49:43;12.50;;;6.43;;
25553;SDS011;13446;50.926;5.332;2022-07-25T03:52:09;11.75;;;6.30;;
25553;SDS011;13446;50.926;5.332;2022-07-25T03:54:38;11.50;;;6.38;;
25553;SDS011;13446;50.926;5.332;2022-07-25T03:57:05;10.77;;;6.28;;
25553;SDS011;13446;50.926;5.332;2022-07-25T03:59:31;10.23;;;6.50;;
25553;SDS011;13446;50.926;5.332;2022-07-25T04:01:56;9.85;;;6.63;;
25553;SDS011;13446;50.926;5.332;2022-07-25T04:04:22;8.60;;;6.05;;
25553;SDS011;13446;50.926;5.332;2022-07-25T04:06:48;9.48;;;6.32;;
25553;SDS011;13446;50.926;5.332;2022-07-25T04:09:13;12.23;;;6.20;;
25553;SDS011;13446;50.926;5.332;2022-07-25T04:11:42;8.02;;;6.40;;
25553;SDS011;13446;50.926;5.332;2022-07-25T04:14:07;9.65;;;6.35;;
25553;SDS011;13446;50.926;5.332;2022-07-25T04:16:33;9.75;;;6.28;;
25553;SDS011;13446;50.926;5.332;2022-07-25T04:18:59;8.18;;;6.57;;
25553;SDS011;13446;50.926;5.332;2022-07-25T04:21:25;9.63;;;6.25;;
25553;SDS011;13446;50.926;5.332;2022-07-25T04:23:51;7.30;;;6.13;;
25553;SDS011;13446;50.926;5.332;2022-07-25T04:26:17;10.75;;;6.45;;
25553;SDS011;13446;50.926;5.332;2022-07-25T04:28:43;11.98;;;6.90;;
25553;SDS011;13446;50.926;5.332;2022-07-25T04:31:08;9.20;;;6.68;;
25553;SDS011;13446;50.926;5.332;2022-07-25T04:33:37;9.45;;;6.30;;
25553;SDS011;13446;50.926;5.332;2022-07-25T04:36:07;8.48;;;6.40;;
25553;SDS011;13446;50.926;5.332;2022-07-25T04:38:33;9.25;;;6.85;;
25553;SDS011;13446;50.926;5.332;2022-07-25T04:41:01;6.50;;;5.80;;
25553;SDS011;13446;50.926;5.332;2022-07-25T04:43:28;12.30;;;6.63;;
25553;SDS011;13446;50.926;5.332;2022-07-25T04:45:54;11.27;;;6.22;;
25553;SDS011;13446;50.926;5.332;2022-07-25T04:48:20;10.55;;;6.18;;
25553;SDS011;13446;50.926;5.332;2022-07-25T04:50:45;11.75;;;6.45;;
25553;SDS011;13446;50.926;5.332;2022-07-25T04:53:11;8.82;;;6.13;;
25553;SDS011;13446;50.926;5.332;2022-07-25T04:55:37;9.48;;;6.45;;
25553;SDS011;13446;50.926;5.332;2022-07-25T04:58:03;7.97;;;6.00;;
25553;SDS011;13446;50.926;5.332;2022-07-25T05:00:31;11.82;;;6.35;;
25553;SDS011;13446;50.926;5.332;2022-07-25T05:02:57;7.88;;;5.72;;
25553;SDS011;13446;50.926;5.332;2022-07-25T05:05:23;8.63;;;5.97;;
25553;SDS011;13446;50.926;5.332;2022-07-25T05:07:49;6.72;;;5.63;;
25553;SDS011;13446;50.926;5.332;2022-07-25T05:10:20;8.90;;;5.32;;
25553;SDS011;13446;50.926;5.332;2022-07-25T05:12:46;7.68;;;5.43;;
25553;SDS011;13446;50.926;5.332;2022-07-25T05:15:11;10.38;;;6.05;;
25553;SDS011;13446;50.926;5.332;2022-07-25T05:17:37;10.32;;;5.53;;
25553;SDS011;13446;50.926;5.332;2022-07-25T05:20:03;9.73;;;5.57;;
25553;SDS011;13446;50.926;5.332;2022-07-25T05:22:30;6.10;;;5.38;;
25553;SDS011;13446;50.926;5.332;2022-07-25T05:24:56;11.20;;;5.78;;
25553;SDS011;13446;50.926;5.332;2022-07-25T05:27:22;7.72;;;5.82;;
25553;SDS011;13446;50.926;5.332;2022-07-25T05:29:48;11.50;;;6.03;;
25553;SDS011;13446;50.926;5.332;2022-07-25T05:32:13;8.32;;;5.53;;
25553;SDS011;13446;50.926;5.332;2022-07-25T05:34:39;12.40;;;5.45;;
25553;SDS011;13446;50.926;5.332;2022-07-25T05:37:04;6.15;;;5.50;;
25553;SDS011;13446;50.926;5.332;2022-07-25T05:39:30;6.32;;;5.60;;
25553;SDS011;13446;50.926;5.332;2022-07-25T05:41:56;9.98;;;5.50;;
25553;SDS011;13446;50.926;5.332;2022-07-25T05:44:21;6.93;;;5.60;;
25553;SDS011;13446;50.926;5.332;2022-07-25T05:46:47;7.25;;;5.28;;
25553;SDS011;13446;50.926;5.332;2022-07-25T05:49:13;9.85;;;5.60;;
25553;SDS011;13446;50.926;5.332;2022-07-25T05:51:39;8.18;;;5.72;;
25553;SDS011;13446;50.926;5.332;2022-07-25T05:54:05;8.52;;;5.55;;
25553;SDS011;13446;50.926;5.332;2022-07-25T05:56:31;6.90;;;5.30;;
25553;SDS011;13446;50.926;5.332;2022-07-25T05:58:57;11.18;;;5.90;;
25553;SDS011;13446;50.926;5.332;2022-07-25T06:01:22;10.93;;;5.72;;
25553;SDS011;13446;50.926;5.332;2022-07-25T06:03:48;10.23;;;5.88;;
25553;SDS011;13446;50.926;5.332;2022-07-25T06:06:14;8.27;;;5.88;;
25553;SDS011;13446;50.926;5.332;2022-07-25T06:08:40;7.80;;;6.05;;
25553;SDS011;13446;50.926;5.332;2022-07-25T06:11:06;8.45;;;5.75;;
25553;SDS011;13446;50.926;5.332;2022-07-25T06:13:32;8.88;;;6.05;;
25553;SDS011;13446;50.926;5.332;2022-07-25T06:15:59;9.25;;;5.72;;
25553;SDS011;13446;50.926;5.332;2022-07-25T06:18:25;9.77;;;6.22;;
25553;SDS011;13446;50.926;5.332;2022-07-25T06:20:51;14.32;;;6.00;;
25553;SDS011;13446;50.926;5.332;2022-07-25T06:23:17;11.32;;;6.35;;
25553;SDS011;13446;50.926;5.332;2022-07-25T06:25:43;11.68;;;6.28;;
25553;SDS011;13446;50.926;5.332;2022-07-25T06:28:10;6.50;;;5.80;;
25553;SDS011;13446;50.926;5.332;2022-07-25T06:30:39;9.98;;;5.57;;
25553;SDS011;13446;50.926;5.332;2022-07-25T06:33:05;9.23;;;5.97;;
25553;SDS011;13446;50.926;5.332;2022-07-25T06:35:31;9.35;;;6.10;;
25553;SDS011;13446;50.926;5.332;2022-07-25T06:37:58;12.82;;;6.05;;
25553;SDS011;13446;50.926;5.332;2022-07-25T06:40:23;9.10;;;5.38;;
25553;SDS011;13446;50.926;5.332;2022-07-25T06:42:49;6.65;;;5.22;;
25553;SDS011;13446;50.926;5.332;2022-07-25T06:45:15;11.80;;;5.40;;
25553;SDS011;13446;50.926;5.332;2022-07-25T06:47:41;7.30;;;5.32;;
25553;SDS011;13446;50.926;5.332;2022-07-25T06:50:09;5.55;;;4.90;;
25553;SDS011;13446;50.926;5.332;2022-07-25T06:52:39;7.18;;;4.85;;
25553;SDS011;13446;50.926;5.332;2022-07-25T06:55:05;5.93;;;4.07;;
25553;SDS011;13446;50.926;5.332;2022-07-25T06:57:32;5.40;;;3.55;;
25553;SDS011;13446;50.926;5.332;2022-07-25T06:59:58;6.00;;;4.22;;
25553;SDS011;13446;50.926;5.332;2022-07-25T07:02:24;11.32;;;4.05;;
25553;SDS011;13446;50.926;5.332;2022-07-25T07:04:49;5.32;;;3.40;;
25553;SDS011;13446;50.926;5.332;2022-07-25T07:07:15;7.22;;;3.80;;
25553;SDS011;13446;50.926;5.332;2022-07-25T07:09:41;11.23;;;3.90;;
25553;SDS011;13446;50.926;5.332;2022-07-25T07:12:07;5.85;;;4.05;;
25553;SDS011;13446;50.926;5.332;2022-07-25T07:14:34;8.07;;;3.92;;
25553;SDS011;13446;50.926;5.332;2022-07-25T07:17:01;8.00;;;3.70;;
25553;SDS011;13446;50.926;5.332;2022-07-25T07:19:28;8.27;;;4.05;;
25553;SDS011;13446;50.926;5.332;2022-07-25T07:21:53;6.07;;;4.03;;
25553;SDS011;13446;50.926;5.332;2022-07-25T07:24:19;6.47;;;4.05;;
25553;SDS011;13446;50.926;5.332;2022-07-25T07:26:44;9.02;;;3.75;;
25553;SDS011;13446;50.926;5.332;2022-07-25T07:29:10;7.55;;;3.80;;
25553;SDS011;13446;50.926;5.332;2022-07-25T07:31:36;8.35;;;3.35;;
25553;SDS011;13446;50.926;5.332;2022-07-25T07:34:01;11.27;;;3.20;;
25553;SDS011;13446;50.926;5.332;2022-07-25T07:36:27;10.75;;;3.35;;
25553;SDS011;13446;50.926;5.332;2022-07-25T07:38:53;6.65;;;3.42;;
25553;SDS011;13446;50.926;5.332;2022-07-25T07:41:19;10.95;;;3.70;;
25553;SDS011;13446;50.926;5.332;2022-07-25T07:43:45;7.45;;;3.63;;
25553;SDS011;13446;50.926;5.332;2022-07-25T07:46:11;6.22;;;3.33;;
25553;SDS011;13446;50.926;5.332;2022-07-25T07:48:36;11.05;;;3.10;;
25553;SDS011;13446;50.926;5.332;2022-07-25T07:51:02;8.63;;;3.20;;
25553;SDS011;13446;50.926;5.332;2022-07-25T07:53:28;5.95;;;2.97;;
25553;SDS011;13446;50.926;5.332;2022-07-25T07:56:13;9.93;;;3.17;;
25553;SDS011;13446;50.926;5.332;2022-07-25T07:58:40;4.45;;;2.63;;
25553;SDS011;13446;50.926;5.332;2022-07-25T08:01:06;8.30;;;2.70;;
25553;SDS011;13446;50.926;5.332;2022-07-25T08:03:32;4.90;;;2.42;;
25553;SDS011;13446;50.926;5.332;2022-07-25T08:05:58;7.20;;;2.47;;
25553;SDS011;13446;50.926;5.332;2022-07-25T08:08:23;9.93;;;2.55;;
25553;SDS011;13446;50.926;5.332;2022-07-25T08:10:49;9.02;;;2.30;;
25553;SDS011;13446;50.926;5.332;2022-07-25T08:15:43;7.55;;;2.50;;
25553;SDS011;13446;50.926;5.332;2022-07-25T08:18:11;8.10;;;2.60;;
25553;SDS011;13446;50.926;5.332;2022-07-25T08:20:38;10.38;;;2.55;;
25553;SDS011;13446;50.926;5.332;2022-07-25T08:23:04;6.65;;;2.70;;
25553;SDS011;13446;50.926;5.332;2022-07-25T08:25:31;5.93;;;2.70;;
25553;SDS011;13446;50.926;5.332;2022-07-25T08:27:57;5.18;;;2.10;;
25553;SDS011;13446;50.926;5.332;2022-07-25T08:30:23;6.60;;;2.33;;
25553;SDS011;13446;50.926;5.332;2022-07-25T08:32:56;8.23;;;2.42;;
25553;SDS011;13446;50.926;5.332;2022-07-25T08:35:27;5.22;;;1.98;;
25553;SDS011;13446;50.926;5.332;2022-07-25T08:37:53;8.18;;;2.20;;
25553;SDS011;13446;50.926;5.332;2022-07-25T08:40:21;8.07;;;2.33;;
25553;SDS011;13446;50.926;5.332;2022-07-25T08:42:48;8.63;;;2.00;;
25553;SDS011;13446;50.926;5.332;2022-07-25T08:45:15;7.10;;;2.05;;
25553;SDS011;13446;50.926;5.332;2022-07-25T08:47:43;8.02;;;1.75;;
25553;SDS011;13446;50.926;5.332;2022-07-25T08:50:12;4.68;;;2.00;;
25553;SDS011;13446;50.926;5.332;2022-07-25T08:52:41;8.82;;;2.22;;
25553;SDS011;13446;50.926;5.332;2022-07-25T08:55:09;9.40;;;2.00;;
25553;SDS011;13446;50.926;5.332;2022-07-25T08:57:38;9.70;;;2.30;;
25553;SDS011;13446;50.926;5.332;2022-07-25T09:00:08;6.85;;;2.17;;
25553;SDS011;13446;50.926;5.332;2022-07-25T09:02:36;8.47;;;2.13;;
25553;SDS011;13446;50.926;5.332;2022-07-25T09:05:02;13.75;;;2.25;;
25553;SDS011;13446;50.926;5.332;2022-07-25T09:07:31;13.02;;;1.80;;
25553;SDS011;13446;50.926;5.332;2022-07-25T09:10:14;5.05;;;1.65;;
25553;SDS011;13446;50.926;5.332;2022-07-25T09:12:41;8.70;;;2.17;;
25553;SDS011;13446;50.926;5.332;2022-07-25T09:15:21;7.68;;;1.98;;
25553;SDS011;13446;50.926;5.332;2022-07-25T09:17:54;3.70;;;1.70;;
25553;SDS011;13446;50.926;5.332;2022-07-25T09:20:21;4.95;;;1.70;;
25553;SDS011;13446;50.926;5.332;2022-07-25T09:22:46;7.78;;;1.77;;
25553;SDS011;13446;50.926;5.332;2022-07-25T09:25:24;6.88;;;1.70;;
25553;SDS011;13446;50.926;5.332;2022-07-25T09:27:53;5.75;;;1.85;;
25553;SDS011;13446;50.926;5.332;2022-07-25T09:30:20;7.57;;;1.48;;
25553;SDS011;13446;50.926;5.332;2022-07-25T09:32:46;9.73;;;1.73;;
25553;SDS011;13446;50.926;5.332;2022-07-25T09:35:12;5.53;;;1.75;;
25553;SDS011;13446;50.926;5.332;2022-07-25T09:37:38;6.93;;;1.40;;
25553;SDS011;13446;50.926;5.332;2022-07-25T09:40:13;6.60;;;1.65;;
25553;SDS011;13446;50.926;5.332;2022-07-25T09:42:40;3.20;;;1.25;;
25553;SDS011;13446;50.926;5.332;2022-07-25T09:45:12;4.82;;;1.23;;
25553;SDS011;13446;50.926;5.332;2022-07-25T09:47:52;3.30;;;1.23;;
25553;SDS011;13446;50.926;5.332;2022-07-25T09:50:22;2.85;;;1.30;;
25553;SDS011;13446;50.926;5.332;2022-07-25T09:52:52;4.82;;;1.50;;
25553;SDS011;13446;50.926;5.332;2022-07-25T09:55:19;4.60;;;1.30;;
25553;SDS011;13446;50.926;5.332;2022-07-25T09:57:46;3.42;;;1.38;;
25553;SDS011;13446;50.926;5.332;2022-07-25T10:00:18;3.95;;;1.17;;
25553;SDS011;13446;50.926;5.332;2022-07-25T10:05:27;9.20;;;1.52;;
25553;SDS011;13446;50.926;5.332;2022-07-25T10:08:04;1.77;;;1.27;;
25553;SDS011;13446;50.926;5.332;2022-07-25T10:10:35;5.00;;;1.60;;
25553;SDS011;13446;50.926;5.332;2022-07-25T10:13:14;7.40;;;1.55;;
25553;SDS011;13446;50.926;5.332;2022-07-25T10:15:52;3.83;;;1.52;;
25553;SDS011;13446;50.926;5.332;2022-07-25T10:18:19;3.78;;;1.48;;
25553;SDS011;13446;50.926;5.332;2022-07-25T10:20:49;5.70;;;1.38;;
25553;SDS011;13446;50.926;5.332;2022-07-25T10:26:03;4.28;;;1.70;;
25553;SDS011;13446;50.926;5.332;2022-07-25T10:28:46;2.90;;;1.50;;
25553;SDS011;13446;50.926;5.332;2022-07-25T10:31:39;3.13;;;1.50;;
25553;SDS011;13446;50.926;5.332;2022-07-25T10:34:08;3.08;;;1.42;;
25553;SDS011;13446;50.926;5.332;2022-07-25T10:39:13;4.72;;;1.52;;
25553;SDS011;13446;50.926;5.332;2022-07-25T10:41:40;3.83;;;1.67;;
25553;SDS011;13446;50.926;5.332;2022-07-25T10:44:14;4.30;;;1.60;;
25553;SDS011;13446;50.926;5.332;2022-07-25T10:46:40;3.65;;;1.70;;
25553;SDS011;13446;50.926;5.332;2022-07-25T10:49:14;3.08;;;1.60;;
25553;SDS011;13446;50.926;5.332;2022-07-25T10:51:50;3.13;;;1.83;;
25553;SDS011;13446;50.926;5.332;2022-07-25T10:54:20;5.50;;;1.70;;
25553;SDS011;13446;50.926;5.332;2022-07-25T10:56:53;5.07;;;1.52;;
25553;SDS011;13446;50.926;5.332;2022-07-25T10:59:31;4.75;;;1.30;;
25553;SDS011;13446;50.926;5.332;2022-07-25T11:02:05;6.47;;;1.80;;
25553;SDS011;13446;50.926;5.332;2022-07-25T11:04:33;4.60;;;1.60;;
25553;SDS011;13446;50.926;5.332;2022-07-25T11:09:34;4.57;;;1.73;;
25553;SDS011;13446;50.926;5.332;2022-07-25T11:12:00;3.10;;;1.50;;
25553;SDS011;13446;50.926;5.332;2022-07-25T11:14:32;4.00;;;1.75;;
25553;SDS011;13446;50.926;5.332;2022-07-25T11:19:39;3.13;;;1.48;;
25553;SDS011;13446;50.926;5.332;2022-07-25T11:22:06;3.30;;;1.60;;
25553;SDS011;13446;50.926;5.332;2022-07-25T11:24:43;3.40;;;1.70;;
25553;SDS011;13446;50.926;5.332;2022-07-25T11:27:11;1.70;;;1.35;;
25553;SDS011;13446;50.926;5.332;2022-07-25T11:29:46;4.18;;;1.75;;
25553;SDS011;13446;50.926;5.332;2022-07-25T11:32:12;4.57;;;1.45;;
25553;SDS011;13446;50.926;5.332;2022-07-25T11:34:40;5.32;;;1.55;;
25553;SDS011;13446;50.926;5.332;2022-07-25T11:37:08;4.45;;;1.52;;
25553;SDS011;13446;50.926;5.332;2022-07-25T11:39:35;3.50;;;1.42;;
25553;SDS011;13446;50.926;5.332;2022-07-25T11:42:06;3.13;;;1.60;;
25553;SDS011;13446;50.926;5.332;2022-07-25T11:44:36;3.10;;;1.58;;
25553;SDS011;13446;50.926;5.332;2022-07-25T11:47:06;3.10;;;1.70;;
25553;SDS011;13446;50.926;5.332;2022-07-25T11:49:53;3.20;;;1.58;;
25553;SDS011;13446;50.926;5.332;2022-07-25T11:54:51;6.55;;;1.67;;
25553;SDS011;13446;50.926;5.332;2022-07-25T11:57:39;5.80;;;1.67;;
25553;SDS011;13446;50.926;5.332;2022-07-25T12:02:44;4.15;;;1.67;;
25553;SDS011;13446;50.926;5.332;2022-07-25T12:05:11;10.15;;;2.22;;
25553;SDS011;13446;50.926;5.332;2022-07-25T12:07:52;2.85;;;1.80;;
25553;SDS011;13446;50.926;5.332;2022-07-25T12:10:32;5.55;;;2.03;;
25553;SDS011;13446;50.926;5.332;2022-07-25T12:15:29;7.25;;;2.13;;
25553;SDS011;13446;50.926;5.332;2022-07-25T12:17:57;5.55;;;1.75;;
25553;SDS011;13446;50.926;5.332;2022-07-25T12:22:52;8.30;;;2.08;;
25553;SDS011;13446;50.926;5.332;2022-07-25T12:25:20;6.68;;;2.15;;
25553;SDS011;13446;50.926;5.332;2022-07-25T12:27:48;6.10;;;2.25;;
25553;SDS011;13446;50.926;5.332;2022-07-25T12:30:15;4.15;;;1.90;;
25553;SDS011;13446;50.926;5.332;2022-07-25T12:32:41;7.13;;;2.00;;
25553;SDS011;13446;50.926;5.332;2022-07-25T12:35:08;9.68;;;2.30;;
25553;SDS011;13446;50.926;5.332;2022-07-25T12:37:35;5.97;;;3.28;;
25553;SDS011;13446;50.926;5.332;2022-07-25T12:40:01;13.55;;;2.65;;
25553;SDS011;13446;50.926;5.332;2022-07-25T12:42:28;8.55;;;2.17;;
25553;SDS011;13446;50.926;5.332;2022-07-25T12:44:54;4.53;;;2.50;;
25553;SDS011;13446;50.926;5.332;2022-07-25T12:47:20;3.10;;;1.92;;
25553;SDS011;13446;50.926;5.332;2022-07-25T12:49:47;6.88;;;2.28;;
25553;SDS011;13446;50.926;5.332;2022-07-25T12:52:12;5.95;;;2.50;;
25553;SDS011;13446;50.926;5.332;2022-07-25T12:54:38;7.95;;;2.55;;
25553;SDS011;13446;50.926;5.332;2022-07-25T12:57:04;4.20;;;2.30;;
25553;SDS011;13446;50.926;5.332;2022-07-25T12:59:30;7.72;;;2.05;;
25553;SDS011;13446;50.926;5.332;2022-07-25T13:01:56;10.18;;;2.42;;
25553;SDS011;13446;50.926;5.332;2022-07-25T13:04:22;7.50;;;2.17;;
25553;SDS011;13446;50.926;5.332;2022-07-25T13:06:50;10.88;;;2.20;;
25553;SDS011;13446;50.926;5.332;2022-07-25T13:09:16;4.75;;;2.75;;
25553;SDS011;13446;50.926;5.332;2022-07-25T13:11:42;6.22;;;2.45;;
25553;SDS011;13446;50.926;5.332;2022-07-25T13:14:07;7.05;;;2.60;;
25553;SDS011;13446;50.926;5.332;2022-07-25T13:16:34;10.88;;;2.40;;
25553;SDS011;13446;50.926;5.332;2022-07-25T13:19:02;10.25;;;2.45;;
25553;SDS011;13446;50.926;5.332;2022-07-25T13:21:28;10.35;;;2.28;;
25553;SDS011;13446;50.926;5.332;2022-07-25T13:23:55;5.70;;;1.88;;
25553;SDS011;13446;50.926;5.332;2022-07-25T13:26:21;7.25;;;2.30;;
25553;SDS011;13446;50.926;5.332;2022-07-25T13:28:48;5.05;;;1.90;;
25553;SDS011;13446;50.926;5.332;2022-07-25T13:31:16;5.70;;;1.70;;
25553;SDS011;13446;50.926;5.332;2022-07-25T13:33:44;2.88;;;1.70;;
25553;SDS011;13446;50.926;5.332;2022-07-25T13:36:10;6.15;;;1.75;;
25553;SDS011;13446;50.926;5.332;2022-07-25T13:38:36;6.05;;;1.92;;
25553;SDS011;13446;50.926;5.332;2022-07-25T13:41:05;3.80;;;1.83;;
25553;SDS011;13446;50.926;5.332;2022-07-25T13:43:33;9.15;;;1.80;;
25553;SDS011;13446;50.926;5.332;2022-07-25T13:45:59;5.88;;;2.10;;
25553;SDS011;13446;50.926;5.332;2022-07-25T13:48:25;6.10;;;1.92;;
25553;SDS011;13446;50.926;5.332;2022-07-25T13:50:50;5.93;;;1.90;;
25553;SDS011;13446;50.926;5.332;2022-07-25T13:53:16;6.78;;;2.00;;
25553;SDS011;13446;50.926;5.332;2022-07-25T13:55:43;15.82;;;2.15;;
25553;SDS011;13446;50.926;5.332;2022-07-25T13:58:08;11.63;;;1.85;;
25553;SDS011;13446;50.926;5.332;2022-07-25T14:00:34;4.35;;;1.90;;
25553;SDS011;13446;50.926;5.332;2022-07-25T14:03:00;5.70;;;1.90;;
25553;SDS011;13446;50.926;5.332;2022-07-25T14:05:26;7.00;;;1.90;;
25553;SDS011;13446;50.926;5.332;2022-07-25T14:07:51;4.82;;;2.20;;
25553;SDS011;13446;50.926;5.332;2022-07-25T14:10:17;5.30;;;1.90;;
25553;SDS011;13446;50.926;5.332;2022-07-25T14:12:43;6.38;;;2.03;;
25553;SDS011;13446;50.926;5.332;2022-07-25T14:15:10;14.35;;;2.58;;
25553;SDS011;13446;50.926;5.332;2022-07-25T14:17:36;6.70;;;2.15;;
25553;SDS011;13446;50.926;5.332;2022-07-25T14:20:02;8.63;;;2.15;;
25553;SDS011;13446;50.926;5.332;2022-07-25T14:22:29;8.48;;;2.53;;
25553;SDS011;13446;50.926;5.332;2022-07-25T14:24:57;7.93;;;2.13;;
25553;SDS011;13446;50.926;5.332;2022-07-25T14:27:23;4.40;;;2.30;;
25553;SDS011;13446;50.926;5.332;2022-07-25T14:29:48;7.93;;;2.20;;
25553;SDS011;13446;50.926;5.332;2022-07-25T14:32:14;9.23;;;2.20;;
25553;SDS011;13446;50.926;5.332;2022-07-25T14:34:40;5.60;;;2.10;;
25553;SDS011;13446;50.926;5.332;2022-07-25T14:37:05;7.32;;;2.25;;
25553;SDS011;13446;50.926;5.332;2022-07-25T14:39:32;7.28;;;2.28;;
25553;SDS011;13446;50.926;5.332;2022-07-25T14:41:59;10.27;;;2.30;;
25553;SDS011;13446;50.926;5.332;2022-07-25T14:44:25;5.15;;;2.20;;
25553;SDS011;13446;50.926;5.332;2022-07-25T14:46:52;10.68;;;2.22;;
25553;SDS011;13446;50.926;5.332;2022-07-25T14:49:20;9.15;;;2.38;;
25553;SDS011;13446;50.926;5.332;2022-07-25T14:51:47;7.03;;;2.30;;
25553;SDS011;13446;50.926;5.332;2022-07-25T14:54:13;5.22;;;2.08;;
25553;SDS011;13446;50.926;5.332;2022-07-25T14:56:40;8.00;;;2.05;;
25553;SDS011;13446;50.926;5.332;2022-07-25T14:59:06;10.18;;;2.15;;
25553;SDS011;13446;50.926;5.332;2022-07-25T15:01:34;9.43;;;2.10;;
25553;SDS011;13446;50.926;5.332;2022-07-25T15:04:00;6.53;;;2.17;;
25553;SDS011;13446;50.926;5.332;2022-07-25T15:06:26;9.13;;;2.25;;
25553;SDS011;13446;50.926;5.332;2022-07-25T15:08:52;4.35;;;2.10;;
25553;SDS011;13446;50.926;5.332;2022-07-25T15:11:18;8.77;;;2.00;;